Time;durP1;ratioP1;P1;durP2;ratioP2;P2;SDS_P1;SDS_P2;PMS_P1;PMS_P2;Temp;Humidity;BMP_temperature;BMP_pressure;BME280_temperature;BME280_humidity;BME280_pressure;Samples;Min_cycle;Max_cycle;Signal;HPM_P1;HPM_P2
2021/03/14 00:01:55;;;;;;;;;3.40;3.00;;;;;15.38;41.67;97402.91;6284319;27;126986;-57
2021/03/14 00:04:56;;;;;;;;;2.00;2.00;;;;;14.86;44.66;97437.03;6269324;27;126369;-57
2021/03/14 00:07:58;;;;;;;;;3.00;3.00;;;;;14.38;45.25;97395.38;6253775;27;126463;-57
2021/03/14 00:11:04;;;;;;;;;1.40;1.40;;;;;14.17;44.99;97408.22;6266891;27;125242;-58
2021/03/14 00:14:05;;;;;;;;;2.80;2.80;;;;;14.00;44.15;97415.13;6257813;27;126221;-58
2021/03/14 00:17:07;;;;;;;;;2.60;2.60;;;;;13.95;44.21;97415.16;6235892;27;125528;-57
2021/03/14 00:20:09;;;;;;;;;1.00;1.00;;;;;13.94;44.41;97408.91;6243040;27;125067;-58
2021/03/14 00:23:10;;;;;;;;;2.00;2.00;;;;;14.01;44.35;97404.00;6259344;27;126567;-57
2021/03/14 00:26:12;;;;;;;;;2.00;2.00;;;;;14.06;44.26;97387.72;6249773;27;127086;-57
2021/03/14 00:29:13;;;;;;;;;2.00;2.00;;;;;13.98;44.77;97377.47;6261466;27;127518;-58
2021/03/14 00:32:15;;;;;;;;;1.80;1.80;;;;;13.96;44.63;97379.66;6274319;27;126206;-58
2021/03/14 00:35:18;;;;;;;;;2.00;2.00;;;;;13.99;44.41;97392.63;6250660;27;126546;-57
2021/03/14 00:38:19;;;;;;;;;3.00;3.00;;;;;13.96;44.13;97366.09;6243161;27;127011;-57
2021/03/14 00:41:21;;;;;;;;;2.00;2.00;;;;;14.02;44.22;97356.06;6258613;27;125447;-57
2021/03/14 00:44:24;;;;;;;;;2.80;2.80;;;;;14.11;43.82;97357.06;6259006;27;127016;-57
2021/03/14 00:47:26;;;;;;;;;3.00;2.00;;;;;14.22;43.90;97359.41;6233946;27;126146;-57
2021/03/14 00:50:39;;;;;;;;;3.00;3.00;;;;;14.10;43.92;97369.81;6280270;27;126671;-57
2021/03/14 00:53:44;;;;;;;;;2.00;2.00;;;;;14.14;43.62;97375.47;6249643;27;126363;-57
2021/03/14 00:56:53;;;;;;;;;2.20;2.00;;;;;14.23;42.96;97379.19;6223872;27;127397;-57
2021/03/14 00:59:55;;;;;;;;;3.00;3.00;;;;;14.28;42.55;97369.13;6241375;27;126349;-57
2021/03/14 01:02:57;;;;;;;;;2.40;2.40;;;;;14.17;42.57;97342.41;6234775;27;125700;-57
2021/03/14 01:06:02;;;;;;;;;3.00;3.00;;;;;14.43;42.30;97367.44;6227721;27;126071;-57
2021/03/14 01:09:04;;;;;;;;;3.00;2.20;;;;;14.30;42.66;97364.25;6250655;27;125509;-57
2021/03/14 01:12:08;;;;;;;;;4.00;4.00;;;;;14.22;42.86;97383.03;6262451;27;123928;-57
2021/03/14 01:15:19;;;;;;;;;1.60;1.60;;;;;14.19;43.19;97392.50;6261469;27;126045;-58
2021/03/14 01:18:26;;;;;;;;;3.50;3.00;;;;;14.07;43.36;97388.53;6235457;27;127080;-57
2021/03/14 01:21:27;;;;;;;;;2.00;2.00;;;;;14.08;43.33;97407.22;6287854;27;126362;-57
2021/03/14 01:24:29;;;;;;;;;3.00;3.00;;;;;14.23;43.03;97382.72;6270757;27;126636;-57
2021/03/14 01:27:30;;;;;;;;;2.60;2.00;;;;;14.04;43.17;97365.50;6242985;27;126697;-57
2021/03/14 01:30:32;;;;;;;;;3.00;3.00;;;;;14.08;43.38;97399.06;6258504;27;125088;-57
2021/03/14 01:33:34;;;;;;;;;3.00;3.00;;;;;14.14;42.96;97384.41;6259600;27;125390;-57
2021/03/14 01:36:36;;;;;;;;;2.00;2.00;;;;;14.30;42.41;97390.53;6260689;27;125144;-57
2021/03/14 01:39:38;;;;;;;;;3.00;3.00;;;;;14.23;42.47;97381.91;6251543;27;126500;-57
2021/03/14 01:42:40;;;;;;;;;3.40;3.40;;;;;14.08;42.64;97380.09;6261501;27;125683;-57
2021/03/14 01:45:41;;;;;;;;;3.40;3.00;;;;;13.88;42.68;97334.97;6261324;27;127012;-57
2021/03/14 01:48:43;;;;;;;;;4.00;3.00;;;;;14.15;42.45;97339.97;6250243;27;126315;-57
2021/03/14 01:51:45;;;;;;;;;3.60;3.00;;;;;14.25;42.47;97347.22;6261182;27;126613;-57
2021/03/14 01:54:46;;;;;;;;;4.00;3.80;;;;;14.26;42.29;97368.63;6261143;27;125325;-57
2021/03/14 01:57:48;;;;;;;;;4.00;3.00;;;;;14.38;42.12;97354.72;6252679;27;125238;-57
2021/03/14 02:00:54;;;;;;;;;2.20;2.20;;;;;14.45;41.84;97336.25;6239273;27;126918;-57
2021/03/14 02:03:56;;;;;;;;;4.00;4.00;;;;;14.40;41.91;97355.25;6245980;27;125731;-57
2021/03/14 02:06:57;;;;;;;;;3.00;3.00;;;;;14.35;41.59;97379.66;6251971;27;126616;-57
2021/03/14 02:09:59;;;;;;;;;4.60;3.40;;;;;14.22;41.50;97364.06;6279718;27;125594;-57
2021/03/14 02:13:21;;;;;;;;;2.80;2.80;;;;;14.35;41.33;97393.22;6272451;27;125486;-57
2021/03/14 02:16:33;;;;;;;;;2.00;2.00;;;;;14.27;41.44;97389.19;6261144;27;125621;-57
2021/03/14 02:19:38;;;;;;;;;3.75;3.75;;;;;14.17;41.14;97383.84;6227446;27;124667;-57
2021/03/14 02:22:46;;;;;;;;;2.00;2.00;;;;;13.98;41.24;97360.38;6261248;27;126925;-57
2021/03/14 02:25:53;;;;;;;;;3.00;3.00;;;;;13.97;41.02;97356.91;6260135;27;124865;-57
2021/03/14 02:28:55;;;;;;;;;3.00;2.00;;;;;14.11;40.92;97382.28;6249690;27;124766;-57
2021/03/14 02:31:58;;;;;;;;;2.00;2.00;;;;;14.05;40.78;97366.31;6260608;27;126526;-57
2021/03/14 02:35:02;;;;;;;;;3.50;3.50;;;;;14.08;40.80;97363.84;6258332;27;126568;-57
2021/03/14 02:38:04;;;;;;;;;2.00;2.00;;;;;14.11;40.10;97367.91;6257641;27;127008;-57
2021/03/14 02:41:06;;;;;;;;;3.00;3.00;;;;;13.98;39.85;97352.25;6260043;27;126351;-57
2021/03/14 02:44:11;;;;;;;;;3.00;3.00;;;;;14.15;39.56;97361.66;6261308;27;127553;-57
2021/03/14 02:47:13;;;;;;;;;1.80;1.80;;;;;14.00;39.29;97306.75;6255348;27;126568;-57
2021/03/14 02:50:32;;;;;;;;;1.60;1.60;;;;;14.17;39.07;97354.03;6261732;27;125012;-57
2021/03/14 02:53:36;;;;;;;;;1.00;1.00;;;;;14.16;39.12;97347.00;6256123;27;127028;-57
2021/03/14 02:56:38;;;;;;;;;1.40;1.40;;;;;14.07;39.02;97362.25;6257288;27;124859;-57
2021/03/14 02:59:41;;;;;;;;;2.00;2.00;;;;;14.03;38.76;97347.63;6262556;27;127840;-57
2021/03/14 03:02:46;;;;;;;;;2.20;1.80;;;;;14.08;38.48;97342.16;6235473;27;127400;-57
2021/03/14 03:05:49;;;;;;;;;1.00;1.00;;;;;14.07;38.51;97340.56;6259552;27;127272;-57
2021/03/14 03:08:51;;;;;;;;;1.00;1.00;;;;;14.01;38.40;97349.00;6249937;27;127779;-57
2021/03/14 03:11:54;;;;;;;;;2.00;2.00;;;;;13.87;38.97;97357.78;6251332;27;124865;-57
2021/03/14 03:14:57;;;;;;;;;2.00;2.00;;;;;14.01;38.65;97355.25;6238499;27;127371;-57
2021/03/14 03:18:01;;;;;;;;;2.00;2.00;;;;;14.09;38.42;97353.81;6236044;27;126103;-57
2021/03/14 03:21:03;;;;;;;;;1.00;1.00;;;;;13.99;38.35;97356.59;6263816;27;127328;-57
2021/03/14 03:24:06;;;;;;;;;3.00;2.33;;;;;14.00;38.49;97355.50;6285069;27;125946;-57
2021/03/14 03:27:07;;;;;;;;;1.00;1.00;;;;;14.08;38.23;97361.13;6261279;27;126224;-57
2021/03/14 03:30:12;;;;;;;;;2.00;2.00;;;;;14.01;38.49;97357.94;6251863;27;127287;-57
2021/03/14 03:33:17;;;;;;;;;2.00;1.75;;;;;14.08;38.57;97358.44;6242657;27;126787;-57
2021/03/14 03:36:18;;;;;;;;;2.00;2.00;;;;;14.07;38.18;97369.56;6243907;27;126682;-57
2021/03/14 03:39:20;;;;;;;;;2.00;2.00;;;;;14.13;38.09;97358.41;6256821;27;125540;-57
2021/03/14 03:42:27;;;;;;;;;2.00;1.40;;;;;14.15;37.91;97366.25;6265475;27;127054;-57
2021/03/14 03:45:33;;;;;;;;;2.00;2.00;;;;;14.09;37.66;97372.78;6247595;27;125964;-57
2021/03/14 03:48:45;;;;;;;;;1.00;1.00;;;;;14.16;37.70;97382.25;6230988;27;124044;-57
2021/03/14 03:51:47;;;;;;;;;2.00;2.00;;;;;14.19;37.65;97380.84;6260117;27;126520;-57
2021/03/14 03:54:51;;;;;;;;;1.00;1.00;;;;;13.85;37.46;97327.44;6259088;27;127167;-57
2021/03/14 03:57:55;;;;;;;;;3.00;2.00;;;;;14.10;37.53;97367.09;6253851;27;126444;-57
2021/03/14 04:00:57;;;;;;;;;2.00;2.00;;;;;14.11;37.59;97359.78;6256028;27;129548;-57
2021/03/14 04:04:01;;;;;;;;;1.80;1.80;;;;;14.21;37.40;97359.72;6245761;27;127184;-57
2021/03/14 04:07:05;;;;;;;;;2.00;2.00;;;;;14.21;37.40;97344.25;6253859;27;125355;-57
2021/03/14 04:10:11;;;;;;;;;1.00;1.00;;;;;13.90;37.32;97334.72;6277492;27;126117;-57
2021/03/14 04:13:13;;;;;;;;;4.00;3.00;;;;;14.14;37.12;97357.31;6233546;27;127257;-57
2021/03/14 04:16:15;;;;;;;;;3.40;3.40;;;;;14.15;37.10;97366.25;6232846;27;126263;-57
2021/03/14 04:19:26;;;;;;;;;2.40;2.40;;;;;14.14;36.92;97365.44;6249391;27;126529;-57
2021/03/14 04:22:29;;;;;;;;;3.00;3.00;;;;;14.15;36.98;97371.69;6258841;27;124913;-57
2021/03/14 04:25:32;;;;;;;;;2.00;2.00;;;;;13.91;36.94;97324.69;6258642;27;126082;-57
2021/03/14 04:28:36;;;;;;;;;1.60;1.60;;;;;14.14;37.19;97365.44;6253518;27;125403;-57
2021/03/14 04:31:44;;;;;;;;;2.00;2.00;;;;;14.10;37.16;97358.97;6269511;27;124775;-57
2021/03/14 04:34:46;;;;;;;;;2.00;1.80;;;;;14.03;37.38;97368.50;6256130;27;126080;-57
2021/03/14 04:37:49;;;;;;;;;2.00;1.60;;;;;14.06;37.46;97365.22;6259061;27;127410;-57
2021/03/14 04:40:51;;;;;;;;;2.50;2.00;;;;;14.01;37.37;97357.13;6236096;27;125329;-57
2021/03/14 04:43:53;;;;;;;;;3.00;3.00;;;;;13.59;37.58;97288.03;6250242;27;126892;-57
2021/03/14 04:46:55;;;;;;;;;1.00;1.00;;;;;14.05;37.32;97356.28;6248266;27;126503;-57
2021/03/14 04:49:57;;;;;;;;;2.00;1.00;;;;;13.92;37.58;97369.66;6264781;27;125978;-57
2021/03/14 04:53:01;;;;;;;;;2.00;2.00;;;;;13.88;37.74;97372.09;6250801;27;125007;-57
2021/03/14 04:56:03;;;;;;;;;1.00;1.00;;;;;13.84;37.63;97379.16;6237922;27;124964;-57
2021/03/14 04:59:08;;;;;;;;;1.00;1.00;;;;;13.74;37.93;97369.19;6249214;27;127579;-57
2021/03/14 05:02:12;;;;;;;;;2.00;2.00;;;;;13.86;37.80;97366.16;6245693;27;127023;-57
2021/03/14 05:05:14;;;;;;;;;2.00;2.00;;;;;13.87;37.53;97376.72;6215019;28;125963;-58
2021/03/14 05:08:19;;;;;;;;;3.40;2.00;;;;;13.87;37.89;97379.44;6235695;27;127451;-57
2021/03/14 05:11:21;;;;;;;;;2.50;2.00;;;;;13.73;37.90;97364.88;6223501;27;125952;-57
2021/03/14 05:14:23;;;;;;;;;0.80;0.00;;;;;13.76;37.99;97377.06;6212337;28;126079;-57
2021/03/14 05:17:25;;;;;;;;;1.60;1.00;;;;;13.86;37.92;97353.44;6225108;27;125760;-57
2021/03/14 05:20:28;;;;;;;;;1.00;1.00;;;;;13.70;37.60;97324.81;6233812;27;126792;-57
2021/03/14 05:23:32;;;;;;;;;3.00;2.00;;;;;13.96;37.49;97365.28;6231210;27;126288;-57
2021/03/14 05:26:35;;;;;;;;;1.00;1.00;;;;;13.91;37.39;97357.19;6232131;27;124817;-57
2021/03/14 05:29:37;;;;;;;;;2.00;2.00;;;;;13.77;37.62;97351.59;6241678;27;126427;-57
2021/03/14 05:32:38;;;;;;;;;1.00;1.00;;;;;13.75;37.88;97351.88;6260033;27;125185;-57
2021/03/14 05:35:41;;;;;;;;;1.80;1.80;;;;;13.82;37.53;97341.53;6231372;28;128019;-57
2021/03/14 05:38:42;;;;;;;;;2.00;2.00;;;;;13.86;37.25;97348.03;6237709;27;126699;-57
2021/03/14 05:41:44;;;;;;;;;1.20;1.20;;;;;13.86;37.34;97341.78;6247881;27;126731;-58
2021/03/14 05:44:46;;;;;;;;;1.00;1.00;;;;;13.60;37.36;97308.63;6211387;28;127030;-57
2021/03/14 05:47:48;;;;;;;;;2.00;2.00;;;;;13.92;37.12;97339.84;6221905;27;126496;-57
2021/03/14 05:50:50;;;;;;;;;2.00;2.00;;;;;13.90;37.41;97329.28;6255668;27;127007;-57
2021/03/14 05:53:52;;;;;;;;;3.00;2.40;;;;;13.87;37.20;97346.94;6236054;28;127481;-57
2021/03/14 05:56:55;;;;;;;;;3.00;3.00;;;;;13.88;37.23;97351.25;6231240;27;125005;-57
2021/03/14 05:59:57;;;;;;;;;1.40;1.40;;;;;13.89;37.25;97355.56;6251678;27;126409;-57
2021/03/14 06:03:01;;;;;;;;;2.00;2.00;;;;;13.79;37.54;97344.78;6249804;27;126522;-57
2021/03/14 06:06:11;;;;;;;;;2.00;2.00;;;;;13.91;37.43;97347.19;6258417;27;124805;-57
2021/03/14 06:09:13;;;;;;;;;3.00;3.00;;;;;13.94;37.36;97343.09;6265280;27;126030;-57
2021/03/14 06:12:15;;;;;;;;;3.00;1.00;;;;;13.95;37.36;97350.13;6285308;27;126202;-57
2021/03/14 06:15:17;;;;;;;;;1.00;1.00;;;;;13.92;37.24;97334.44;6283493;27;126347;-57
2021/03/14 06:18:20;;;;;;;;;3.00;3.00;;;;;14.02;37.39;97356.88;6249212;27;125452;-57
2021/03/14 06:21:30;;;;;;;;;2.00;2.00;;;;;14.09;37.44;97368.19;6261045;27;126255;-57
2021/03/14 06:24:37;;;;;;;;;2.00;2.00;;;;;14.14;37.28;97368.16;6261398;27;126226;-59
2021/03/14 06:27:53;;;;;;;;;1.00;1.00;;;;;14.19;37.48;97376.25;6251839;27;124451;-57
2021/03/14 06:30:55;;;;;;;;;4.00;3.40;;;;;14.24;37.19;97372.69;6258517;27;126217;-57
2021/03/14 06:33:57;;;;;;;;;2.00;2.00;;;;;14.41;37.20;97378.56;6258403;27;125511;-57
2021/03/14 06:37:07;;;;;;;;;4.00;2.60;;;;;14.55;36.83;97393.09;6251810;27;125720;-57
2021/03/14 06:40:15;;;;;;;;;3.00;3.00;;;;;14.60;36.57;97387.66;6252795;27;126041;-57
2021/03/14 06:43:17;;;;;;;;;2.60;2.00;;;;;14.53;37.04;97394.47;6235901;27;126613;-57
2021/03/14 06:46:18;;;;;;;;;2.00;2.00;;;;;14.56;36.79;97393.91;6260908;27;127786;-57
2021/03/14 06:49:23;;;;;;;;;2.60;2.60;;;;;14.57;36.82;97388.19;6250817;27;127314;-57
2021/03/14 06:52:24;;;;;;;;;2.40;2.00;;;;;14.48;36.75;97389.09;6260256;27;126290;-57
2021/03/14 06:55:25;;;;;;;;;2.50;2.50;;;;;14.26;36.61;97384.88;6260044;27;127813;-57
2021/03/14 06:58:33;;;;;;;;;2.60;2.00;;;;;14.41;36.92;97423.84;6214099;27;126456;-57
2021/03/14 07:01:34;;;;;;;;;3.00;2.00;;;;;14.36;36.98;97424.69;6261128;27;127055;-57
2021/03/14 07:04:40;;;;;;;;;2.00;2.00;;;;;14.17;37.33;97431.84;6244855;27;127743;-57
2021/03/14 07:07:42;;;;;;;;;2.00;2.00;;;;;14.28;36.98;97404.38;6252056;27;126050;-57
2021/03/14 07:10:44;;;;;;;;;3.00;3.00;;;;;14.40;36.68;97403.25;6255521;27;127591;-57
2021/03/14 07:13:51;;;;;;;;;3.80;3.00;;;;;14.57;36.24;97415.31;6260660;27;127615;-57
2021/03/14 07:16:58;;;;;;;;;2.00;2.00;;;;;14.91;35.74;97423.44;6254091;27;125891;-59
2021/03/14 07:20:05;;;;;;;;;2.00;2.00;;;;;15.15;35.34;97427.00;6251861;27;127787;-60
2021/03/14 07:23:10;;;;;;;;;2.00;2.00;;;;;15.27;35.01;97434.78;6259695;27;124697;-60
2021/03/14 07:26:11;;;;;;;;;2.00;1.20;;;;;15.35;34.92;97438.75;6240998;27;125907;-60
2021/03/14 07:29:13;;;;;;;;;2.00;2.00;;;;;14.92;34.93;97421.53;6246598;27;127032;-60
2021/03/14 07:32:15;;;;;;;;;2.00;1.00;;;;;14.71;35.40;97401.91;6259671;27;128053;-60
2021/03/14 07:35:17;;;;;;;;;3.00;2.40;;;;;14.93;35.26;97432.13;6258734;27;127053;-60
2021/03/14 07:38:18;;;;;;;;;2.00;2.00;;;;;15.10;34.98;97434.41;6248221;27;126578;-60
2021/03/14 07:41:20;;;;;;;;;3.00;2.60;;;;;15.11;34.62;97446.88;6259323;27;126584;-60
2021/03/14 07:44:23;;;;;;;;;2.00;2.00;;;;;15.22;34.64;97437.53;6259217;27;127676;-60
2021/03/14 07:47:33;;;;;;;;;3.00;3.00;;;;;15.41;34.54;97434.91;6249531;27;124689;-60
2021/03/14 07:50:44;;;;;;;;;2.50;2.50;;;;;15.44;34.24;97443.28;6258463;27;124604;-60
2021/03/14 07:53:47;;;;;;;;;3.00;3.00;;;;;15.69;34.15;97441.41;6260957;27;126754;-60
2021/03/14 07:56:52;;;;;;;;;2.00;2.00;;;;;15.86;33.39;97450.72;6260482;27;125634;-60
2021/03/14 07:59:53;;;;;;;;;3.00;2.00;;;;;15.76;33.13;97412.81;6255593;27;127167;-60
2021/03/14 08:03:00;;;;;;;;;3.00;3.00;;;;;15.75;33.10;97396.78;6250459;27;125095;-60
2021/03/14 08:06:02;;;;;;;;;2.00;2.00;;;;;15.93;32.77;97444.94;6251767;27;124767;-60
2021/03/14 08:09:03;;;;;;;;;3.00;3.00;;;;;15.90;32.66;97448.22;6243345;27;127632;-60
2021/03/14 08:12:25;;;;;;;;;3.00;3.00;;;;;15.66;32.62;97390.38;6253686;27;126648;-61
2021/03/14 08:15:29;;;;;;;;;2.00;2.00;;;;;15.93;32.54;97450.38;6254610;27;124770;-60
2021/03/14 08:18:36;;;;;;;;;3.00;2.40;;;;;15.99;32.62;97458.16;6244694;27;126089;-60
2021/03/14 08:21:40;;;;;;;;;4.00;3.00;;;;;16.10;32.66;97460.75;6256584;27;125928;-60
2021/03/14 08:24:47;;;;;;;;;3.50;3.00;;;;;16.19;32.37;97467.16;6254631;27;124951;-58
2021/03/14 08:28:00;;;;;;;;;2.00;1.20;;;;;16.32;32.13;97469.94;6245912;27;125420;-58
2021/03/14 08:31:04;;;;;;;;;2.00;2.00;;;;;16.70;31.50;97480.88;6253622;27;124569;-59
2021/03/14 08:34:10;;;;;;;;;3.00;3.00;;;;;17.02;30.98;97480.91;6237809;27;127578;-59
2021/03/14 08:37:25;;;;;;;;;3.20;3.00;;;;;17.36;30.37;97488.78;6231972;27;124901;-58
2021/03/14 08:40:33;;;;;;;;;2.20;2.00;;;;;17.27;30.26;97498.75;6245307;27;127273;-58
2021/03/14 08:43:42;;;;;;;;;3.00;3.00;;;;;17.36;30.26;97490.69;6240916;27;125854;-59
2021/03/14 08:46:50;;;;;;;;;2.00;2.00;;;;;17.14;30.33;97491.34;6250643;27;125871;-59
2021/03/14 08:49:56;;;;;;;;;3.00;3.00;;;;;17.21;30.35;97506.19;6248148;27;127191;-59
2021/03/14 08:53:01;;;;;;;;;2.00;2.00;;;;;16.91;30.31;97478.66;6252908;27;124582;-59
2021/03/14 08:56:31;;;;;;;;;4.00;4.00;;;;;16.74;30.12;97465.59;6249573;27;125606;-59
2021/03/14 08:59:33;;;;;;;;;2.25;2.25;;;;;17.16;30.43;97508.19;6241998;27;127181;-59
2021/03/14 09:02:36;;;;;;;;;2.00;2.00;;;;;17.21;30.17;97510.81;6253504;27;125077;-59
2021/03/14 09:06:30;;;;;;;;;3.00;3.00;;;;;17.23;29.88;97509.44;6254474;27;125011;-58
2021/03/14 09:09:40;;;;;;;;;5.00;4.00;;;;;16.97;29.96;97502.78;6239422;27;126303;-58
2021/03/14 09:13:00;;;;;;;;;3.00;2.60;;;;;16.97;29.93;97516.38;6255162;27;125819;-57
2021/03/14 09:16:41;;;;;;;;;2.40;2.40;;;;;16.99;29.81;97519.63;6254723;27;125702;-58
2021/03/14 09:19:47;;;;;;;;;2.00;2.00;;;;;16.93;30.13;97514.56;6256407;27;125006;-57
2021/03/14 09:22:48;;;;;;;;;3.00;2.40;;;;;16.81;30.22;97517.75;6256820;27;126488;-57
2021/03/14 09:25:56;;;;;;;;;2.50;2.50;;;;;16.96;30.39;97503.88;6250350;27;125876;-58
2021/03/14 09:29:04;;;;;;;;;3.60;3.00;;;;;16.78;30.41;97510.16;6260897;27;126176;-58
2021/03/14 09:32:38;;;;;;;;;3.00;3.00;;;;;16.86;30.28;97498.59;6242729;27;128079;-58
2021/03/14 09:35:40;;;;;;;;;3.00;3.00;;;;;16.99;30.33;97500.56;6235378;27;126068;-57
2021/03/14 09:39:00;;;;;;;;;3.00;3.00;;;;;16.96;30.30;97508.53;6256232;27;126139;-58
2021/03/14 09:42:22;;;;;;;;;2.25;2.25;;;;;17.01;30.20;97513.88;6245392;27;127145;-58
2021/03/14 09:45:51;;;;;;;;;5.00;4.40;;;;;16.90;30.15;97515.97;6257643;27;124770;-57
2021/03/14 09:48:53;;;;;;;;;3.20;3.00;;;;;16.95;30.42;97518.63;6240529;27;125911;-57
2021/03/14 09:51:58;;;;;;;;;3.00;2.00;;;;;16.58;30.33;97473.16;6234505;27;126847;-57
2021/03/14 09:55:05;;;;;;;;;5.00;4.00;;;;;16.87;30.36;97509.19;6240239;27;126097;-57
2021/03/14 09:58:19;;;;;;;;;4.00;4.00;;;;;16.80;30.45;97516.94;6231207;27;128299;-57
2021/03/14 10:01:23;;;;;;;;;4.40;4.00;;;;;16.85;30.52;97526.94;6229532;27;124686;-57
2021/03/14 10:04:25;;;;;;;;;4.00;3.00;;;;;17.04;30.60;97535.91;6225005;27;125155;-57
2021/03/14 10:07:36;;;;;;;;;3.00;3.00;;;;;16.78;30.83;97510.16;6219702;27;124871;-57
2021/03/14 10:10:40;;;;;;;;;5.00;4.40;;;;;17.01;31.00;97544.63;6217785;27;125768;-57
2021/03/14 10:13:53;;;;;;;;;4.50;4.50;;;;;16.92;31.30;97542.88;6220283;27;125619;-58
2021/03/14 10:16:56;;;;;;;;;3.00;3.00;;;;;16.91;31.17;97547.50;6228819;27;126207;-58
2021/03/14 10:19:58;;;;;;;;;4.00;4.00;;;;;16.91;31.14;97565.78;6221364;27;125350;-57
2021/03/14 10:23:04;;;;;;;;;3.20;3.00;;;;;16.68;31.51;97572.88;6242448;27;127207;-58
2021/03/14 10:26:31;;;;;;;;;6.00;5.00;;;;;16.70;31.44;97573.41;6215247;28;126268;-57
2021/03/14 10:29:55;;;;;;;;;5.80;5.00;;;;;16.58;31.86;97578.41;6210950;27;125648;-57
2021/03/14 10:33:31;;;;;;;;;4.00;3.60;;;;;16.39;31.78;97548.47;6246358;27;127449;-57
2021/03/14 10:36:36;;;;;;;;;5.00;4.00;;;;;16.36;31.56;97579.81;6217607;27;127159;-57
2021/03/14 10:39:42;;;;;;;;;3.00;3.00;;;;;16.25;31.70;97574.75;6215220;28;127272;-57
2021/03/14 10:42:48;;;;;;;;;3.40;3.40;;;;;16.41;31.82;97587.09;6231071;28;126655;-57
2021/03/14 10:46:01;;;;;;;;;4.00;3.75;;;;;15.98;31.81;97535.34;6215887;27;126907;-56
2021/03/14 10:49:05;;;;;;;;;4.00;4.00;;;;;16.11;32.31;97587.44;6216449;28;127549;-56
2021/03/14 10:52:11;;;;;;;;;5.00;4.60;;;;;15.96;32.53;97593.84;6238401;27;127454;-57
2021/03/14 10:55:24;;;;;;;;;4.00;3.25;;;;;15.76;32.27;97539.69;6221946;27;126077;-56
2021/03/14 10:58:34;;;;;;;;;4.00;4.00;;;;;16.02;32.04;97595.41;6216289;27;126735;-56
2021/03/14 11:01:47;;;;;;;;;5.00;5.00;;;;;16.04;32.11;97602.16;6220954;27;125960;-56
2021/03/14 11:04:58;;;;;;;;;4.00;4.00;;;;;15.93;32.03;97603.38;6231064;27;125875;-56
2021/03/14 11:08:05;;;;;;;;;3.00;3.00;;;;;15.84;32.29;97558.88;6212351;28;124590;-56
2021/03/14 11:11:47;;;;;;;;;5.40;5.00;;;;;15.90;32.28;97573.25;6232387;28;126122;-56
2021/03/14 11:14:51;;;;;;;;;3.60;3.60;;;;;16.22;32.08;97608.78;6232153;28;124007;-56
2021/03/14 11:18:05;;;;;;;;;5.00;5.00;;;;;16.24;32.00;97603.84;6212479;28;125520;-57
2021/03/14 11:21:27;;;;;;;;;6.00;5.00;;;;;16.30;32.05;97608.16;6213572;28;126995;-56
2021/03/14 11:24:29;;;;;;;;;5.00;4.40;;;;;16.00;32.28;97564.97;6209795;28;126864;-56
2021/03/14 11:27:30;;;;;;;;;4.00;4.00;;;;;16.39;32.20;97597.44;6229473;28;128056;-57
2021/03/14 11:30:33;;;;;;;;;6.00;6.00;;;;;16.46;31.99;97590.56;6210581;28;127538;-56
2021/03/14 11:33:35;;;;;;;;;5.00;4.00;;;;;16.39;31.92;97589.28;6205954;28;128147;-56
2021/03/14 11:36:41;;;;;;;;;5.00;5.00;;;;;16.44;31.73;97583.78;6212604;28;126034;-56
2021/03/14 11:39:56;;;;;;;;;6.00;6.00;;;;;16.28;31.60;97583.13;6213103;27;127141;-57
2021/03/14 11:43:06;;;;;;;;;6.00;5.00;;;;;16.50;31.72;97576.38;6227877;28;124858;-58
2021/03/14 11:46:13;;;;;;;;;3.75;3.75;;;;;16.69;31.46;97580.75;6204902;28;127141;-58
2021/03/14 11:49:17;;;;;;;;;4.00;3.00;;;;;16.79;31.02;97574.38;6188488;28;124289;-58
2021/03/14 11:52:19;;;;;;;;;5.00;4.20;;;;;16.91;30.91;97579.38;6206859;28;125267;-58
2021/03/14 11:55:20;;;;;;;;;5.00;4.00;;;;;16.97;30.31;97587.16;6212446;28;125416;-58
2021/03/14 11:58:22;;;;;;;;;4.50;4.00;;;;;16.88;30.20;97589.75;6223326;28;124076;-58
2021/03/14 12:01:27;;;;;;;;;6.00;6.00;;;;;16.99;30.39;97571.38;6231907;28;125350;-59
2021/03/14 12:04:33;;;;;;;;;5.00;5.00;;;;;17.08;29.83;97577.75;6232562;27;126536;-56
2021/03/14 12:07:35;;;;;;;;;4.40;4.00;;;;;17.51;29.20;97551.19;6239615;27;125103;-56
2021/03/14 12:10:37;;;;;;;;;3.25;3.25;;;;;18.14;28.60;97559.59;6237026;27;125246;-56
2021/03/14 12:13:40;;;;;;;;;5.00;5.00;;;;;18.53;27.77;97575.47;6229046;27;130250;-56
2021/03/14 12:16:56;;;;;;;;;4.00;3.00;;;;;18.50;27.58;97567.06;6241111;27;126942;-56
2021/03/14 12:20:09;;;;;;;;;2.50;2.50;;;;;18.25;27.67;97590.22;6239439;27;125744;-56
2021/03/14 12:23:19;;;;;;;;;4.20;4.00;;;;;17.99;27.83;97556.34;6224523;27;125141;-56
2021/03/14 12:26:27;;;;;;;;;4.00;4.00;;;;;17.75;28.02;97557.31;6239637;27;126052;-59
2021/03/14 12:29:33;;;;;;;;;7.00;7.00;;;;;17.71;28.30;97582.75;6240128;27;125972;-59
2021/03/14 12:32:43;;;;;;;;;6.75;6.00;;;;;17.53;28.12;97545.44;6240310;27;126171;-56
2021/03/14 12:35:53;;;;;;;;;7.00;6.50;;;;;17.77;28.41;97578.03;6239724;27;125930;-56
2021/03/14 12:39:28;;;;;;;;;7.00;7.00;;;;;17.86;28.60;97587.13;6218773;27;96612;-56
2021/03/14 12:42:30;;;;;;;;;5.20;5.20;;;;;17.92;28.30;97586.75;6237926;27;125327;-56
2021/03/14 12:45:35;;;;;;;;;8.00;8.00;;;;;17.71;28.31;97588.22;6215859;28;127834;-58
2021/03/14 12:48:37;;;;;;;;;8.00;6.00;;;;;17.91;28.36;97576.13;6215288;28;125475;-58
2021/03/14 12:51:41;;;;;;;;;7.00;7.00;;;;;17.80;27.78;97548.25;6214865;28;125832;-58
2021/03/14 12:54:46;;;;;;;;;8.00;7.00;;;;;18.13;27.93;97598.88;6215682;28;126255;-56
2021/03/14 12:58:01;;;;;;;;;7.00;7.00;;;;;18.11;28.03;97595.66;6219775;28;126157;-56
2021/03/14 13:01:10;;;;;;;;;7.25;6.75;;;;;17.87;27.98;97591.47;6219378;28;126245;-57
2021/03/14 13:04:11;;;;;;;;;9.00;7.00;;;;;17.79;28.48;97597.63;6240519;27;128549;-57
2021/03/14 13:07:13;;;;;;;;;7.60;6.60;;;;;17.84;28.51;97601.06;6258492;27;125391;-57
2021/03/14 13:10:15;;;;;;;;;7.50;6.00;;;;;17.65;28.15;97603.84;6259350;27;126422;-57
2021/03/14 13:13:17;;;;;;;;;5.00;5.00;;;;;17.62;28.56;97615.34;6256949;27;127730;-57
2021/03/14 13:16:18;;;;;;;;;6.00;5.00;;;;;17.52;28.28;97629.09;6257148;27;126723;-57
2021/03/14 13:19:20;;;;;;;;;6.00;5.60;;;;;17.09;27.95;97571.22;6256992;27;124353;-57
2021/03/14 13:22:21;;;;;;;;;5.00;5.00;;;;;17.38;27.97;97633.69;6257308;27;125429;-57
2021/03/14 13:25:25;;;;;;;;;6.00;6.00;;;;;17.24;28.20;97630.91;6239339;27;127582;-57
2021/03/14 13:59:14;;;;;;;;;7.00;7.00;;;;;17.22;28.88;97676.66;6263605;27;97117;-57
2021/03/14 14:02:16;;;;;;;;;7.00;7.00;;;;;17.05;29.10;97679.09;6254328;27;125567;-57
2021/03/14 14:05:18;;;;;;;;;6.00;6.00;;;;;17.00;28.97;97679.16;6255752;27;128940;-57
2021/03/14 14:08:20;;;;;;;;;6.00;6.00;;;;;17.00;28.98;97671.00;6257034;27;127142;-57
2021/03/14 14:11:21;;;;;;;;;7.00;7.00;;;;;16.99;28.87;97680.25;6255532;27;125416;-57
2021/03/14 14:14:23;;;;;;;;;7.00;6.00;;;;;16.99;28.84;97677.53;6258111;27;126554;-58
2021/03/14 14:17:25;;;;;;;;;7.00;6.40;;;;;16.86;28.97;97683.69;6258273;27;127441;-58
2021/03/14 14:20:26;;;;;;;;;7.75;7.00;;;;;17.11;29.01;97674.38;6259016;27;128123;-58
2021/03/14 14:23:28;;;;;;;;;7.00;7.00;;;;;17.10;28.86;97675.50;6243233;27;126926;-58
2021/03/14 14:26:30;;;;;;;;;8.00;6.00;;;;;16.85;29.15;97666.56;6258651;27;127617;-57
2021/03/14 14:29:32;;;;;;;;;5.00;5.00;;;;;16.89;29.29;97669.50;6238684;27;126685;-58
2021/03/14 14:32:34;;;;;;;;;7.40;6.00;;;;;16.72;29.43;97680.84;6258467;27;128514;-58
2021/03/14 14:35:36;;;;;;;;;7.00;7.00;;;;;16.53;31.22;97709.88;6224169;27;128811;-58
2021/03/14 14:38:37;;;;;;;;;7.00;6.80;;;;;16.05;34.83;97711.72;6258565;27;127044;-58
2021/03/14 14:41:39;;;;;;;;;7.40;7.00;;;;;16.00;35.55;97744.38;6258436;27;128530;-58
2021/03/14 14:44:40;;;;;;;;;6.00;6.00;;;;;15.33;36.14;97728.78;6256664;27;124874;-58
2021/03/14 14:47:43;;;;;;;;;4.20;4.00;;;;;15.23;36.42;97750.56;6256705;27;128423;-58
2021/03/14 14:50:44;;;;;;;;;4.75;4.00;;;;;15.11;36.12;97732.69;6256671;27;125120;-58
2021/03/14 14:53:46;;;;;;;;;6.00;5.00;;;;;15.01;36.67;97730.03;6257447;27;127037;-58